sensor_id;sensor_type;location;lat;lon;timestamp;P1;durP1;ratioP1;P2;durP2;ratioP2
38264;SDS011;24062;47.480;8.768;2022-08-14T00:00:08;11.20;;;2.33;;
38264;SDS011;24062;47.480;8.768;2022-08-14T00:02:37;10.40;;;2.70;;
38264;SDS011;24062;47.480;8.768;2022-08-14T00:05:06;11.20;;;2.57;;
38264;SDS011;24062;47.480;8.768;2022-08-14T00:07:34;10.60;;;2.50;;
38264;SDS011;24062;47.480;8.768;2022-08-14T00:10:03;11.43;;;2.43;;
38264;SDS011;24062;47.480;8.768;2022-08-14T00:12:32;11.33;;;2.77;;
38264;SDS011;24062;47.480;8.768;2022-08-14T00:15:03;10.43;;;2.40;;
38264;SDS011;24062;47.480;8.768;2022-08-14T00:17:32;11.40;;;2.67;;
38264;SDS011;24062;47.480;8.768;2022-08-14T00:19:59;11.30;;;2.30;;
38264;SDS011;24062;47.480;8.768;2022-08-14T00:22:26;14.37;;;3.00;;
38264;SDS011;24062;47.480;8.768;2022-08-14T00:24:53;11.23;;;2.77;;
38264;SDS011;24062;47.480;8.768;2022-08-14T00:27:20;11.23;;;2.80;;
38264;SDS011;24062;47.480;8.768;2022-08-14T00:29:47;12.23;;;2.53;;
38264;SDS011;24062;47.480;8.768;2022-08-14T00:32:15;11.37;;;2.30;;
38264;SDS011;24062;47.480;8.768;2022-08-14T00:34:42;11.47;;;2.50;;
38264;SDS011;24062;47.480;8.768;2022-08-14T00:37:09;13.20;;;2.83;;
38264;SDS011;24062;47.480;8.768;2022-08-14T00:39:37;16.43;;;3.07;;
38264;SDS011;24062;47.480;8.768;2022-08-14T00:42:04;12.20;;;2.80;;
38264;SDS011;24062;47.480;8.768;2022-08-14T00:44:31;13.40;;;2.80;;
38264;SDS011;24062;47.480;8.768;2022-08-14T00:46:58;10.77;;;2.40;;
38264;SDS011;24062;47.480;8.768;2022-08-14T00:49:28;10.90;;;2.90;;
38264;SDS011;24062;47.480;8.768;2022-08-14T00:51:56;11.20;;;2.90;;
38264;SDS011;24062;47.480;8.768;2022-08-14T00:54:25;10.60;;;2.67;;
38264;SDS011;24062;47.480;8.768;2022-08-14T00:56:52;12.97;;;3.10;;
38264;SDS011;24062;47.480;8.768;2022-08-14T00:59:19;10.90;;;2.80;;
38264;SDS011;24062;47.480;8.768;2022-08-14T01:01:47;12.07;;;3.00;;
38264;SDS011;24062;47.480;8.768;2022-08-14T01:04:14;13.73;;;3.60;;
38264;SDS011;24062;47.480;8.768;2022-08-14T01:06:43;12.07;;;3.23;;
38264;SDS011;24062;47.480;8.768;2022-08-14T01:09:10;11.20;;;3.10;;
38264;SDS011;24062;47.480;8.768;2022-08-14T01:11:37;10.93;;;2.70;;
38264;SDS011;24062;47.480;8.768;2022-08-14T01:14:05;10.73;;;2.87;;
38264;SDS011;24062;47.480;8.768;2022-08-14T01:16:32;12.70;;;3.00;;
38264;SDS011;24062;47.480;8.768;2022-08-14T01:18:58;10.90;;;2.93;;
38264;SDS011;24062;47.480;8.768;2022-08-14T01:21:44;11.80;;;3.33;;
38264;SDS011;24062;47.480;8.768;2022-08-14T01:24:12;11.13;;;2.83;;
38264;SDS011;24062;47.480;8.768;2022-08-14T01:26:39;12.77;;;3.53;;
38264;SDS011;24062;47.480;8.768;2022-08-14T01:29:08;11.60;;;3.07;;
38264;SDS011;24062;47.480;8.768;2022-08-14T01:31:36;13.03;;;3.23;;
38264;SDS011;24062;47.480;8.768;2022-08-14T01:34:05;11.97;;;2.93;;
38264;SDS011;24062;47.480;8.768;2022-08-14T01:36:32;11.20;;;2.73;;
38264;SDS011;24062;47.480;8.768;2022-08-14T01:39:04;11.40;;;3.17;;
38264;SDS011;24062;47.480;8.768;2022-08-14T01:41:33;11.27;;;2.90;;
38264;SDS011;24062;47.480;8.768;2022-08-14T01:44:02;10.90;;;2.80;;
38264;SDS011;24062;47.480;8.768;2022-08-14T01:46:31;13.70;;;2.97;;
38264;SDS011;24062;47.480;8.768;2022-08-14T01:49:03;11.30;;;3.13;;
38264;SDS011;24062;47.480;8.768;2022-08-14T01:51:31;11.23;;;3.00;;
38264;SDS011;24062;47.480;8.768;2022-08-14T01:53:59;12.40;;;3.00;;
38264;SDS011;24062;47.480;8.768;2022-08-14T01:56:29;11.40;;;3.13;;
38264;SDS011;24062;47.480;8.768;2022-08-14T01:59:02;11.07;;;3.20;;
38264;SDS011;24062;47.480;8.768;2022-08-14T02:01:31;11.73;;;3.00;;
38264;SDS011;24062;47.480;8.768;2022-08-14T02:03:59;12.27;;;3.40;;
38264;SDS011;24062;47.480;8.768;2022-08-14T02:06:26;11.20;;;2.90;;
38264;SDS011;24062;47.480;8.768;2022-08-14T02:08:54;12.50;;;3.03;;
38264;SDS011;24062;47.480;8.768;2022-08-14T02:11:22;11.00;;;2.87;;
38264;SDS011;24062;47.480;8.768;2022-08-14T02:13:55;11.50;;;3.10;;
38264;SDS011;24062;47.480;8.768;2022-08-14T02:16:25;11.00;;;2.60;;
38264;SDS011;24062;47.480;8.768;2022-08-14T02:18:54;11.27;;;3.17;;
38264;SDS011;24062;47.480;8.768;2022-08-14T02:21:23;11.80;;;3.10;;
38264;SDS011;24062;47.480;8.768;2022-08-14T02:23:51;11.20;;;2.63;;
38264;SDS011;24062;47.480;8.768;2022-08-14T02:26:20;10.00;;;2.60;;
38264;SDS011;24062;47.480;8.768;2022-08-14T02:28:49;13.57;;;3.50;;
38264;SDS011;24062;47.480;8.768;2022-08-14T02:31:18;11.50;;;2.93;;
38264;SDS011;24062;47.480;8.768;2022-08-14T02:33:46;11.03;;;2.93;;
38264;SDS011;24062;47.480;8.768;2022-08-14T02:36:13;13.03;;;3.53;;
38264;SDS011;24062;47.480;8.768;2022-08-14T02:38:41;10.80;;;2.93;;
38264;SDS011;24062;47.480;8.768;2022-08-14T02:41:09;11.90;;;3.07;;
38264;SDS011;24062;47.480;8.768;2022-08-14T02:43:38;10.50;;;2.80;;
38264;SDS011;24062;47.480;8.768;2022-08-14T02:46:06;11.27;;;3.30;;
38264;SDS011;24062;47.480;8.768;2022-08-14T02:48:36;10.60;;;2.50;;
38264;SDS011;24062;47.480;8.768;2022-08-14T02:51:05;11.30;;;2.80;;
38264;SDS011;24062;47.480;8.768;2022-08-14T02:53:35;13.83;;;3.63;;
38264;SDS011;24062;47.480;8.768;2022-08-14T02:56:05;12.10;;;3.47;;
38264;SDS011;24062;47.480;8.768;2022-08-14T02:58:35;11.40;;;2.73;;
38264;SDS011;24062;47.480;8.768;2022-08-14T03:01:04;11.27;;;2.80;;
38264;SDS011;24062;47.480;8.768;2022-08-14T03:03:32;10.50;;;2.80;;
38264;SDS011;24062;47.480;8.768;2022-08-14T03:06:01;10.50;;;2.80;;
38264;SDS011;24062;47.480;8.768;2022-08-14T03:08:29;10.87;;;2.90;;
38264;SDS011;24062;47.480;8.768;2022-08-14T03:10:57;11.20;;;3.00;;
38264;SDS011;24062;47.480;8.768;2022-08-14T03:13:24;12.27;;;3.10;;
38264;SDS011;24062;47.480;8.768;2022-08-14T03:15:51;11.60;;;3.27;;
38264;SDS011;24062;47.480;8.768;2022-08-14T03:18:19;10.83;;;2.70;;
38264;SDS011;24062;47.480;8.768;2022-08-14T03:20:47;10.97;;;2.90;;
38264;SDS011;24062;47.480;8.768;2022-08-14T03:23:16;12.67;;;3.07;;
38264;SDS011;24062;47.480;8.768;2022-08-14T03:25:43;11.97;;;2.83;;
38264;SDS011;24062;47.480;8.768;2022-08-14T03:28:11;11.20;;;3.30;;
38264;SDS011;24062;47.480;8.768;2022-08-14T03:30:38;12.60;;;3.40;;
38264;SDS011;24062;47.480;8.768;2022-08-14T03:33:06;12.27;;;3.00;;
38264;SDS011;24062;47.480;8.768;2022-08-14T03:35:34;13.90;;;3.77;;
38264;SDS011;24062;47.480;8.768;2022-08-14T03:38:04;11.27;;;3.13;;
38264;SDS011;24062;47.480;8.768;2022-08-14T03:40:35;11.13;;;2.70;;
38264;SDS011;24062;47.480;8.768;2022-08-14T03:43:04;11.33;;;3.20;;
38264;SDS011;24062;47.480;8.768;2022-08-14T03:45:31;11.00;;;2.80;;
38264;SDS011;24062;47.480;8.768;2022-08-14T03:48:00;11.10;;;3.33;;
38264;SDS011;24062;47.480;8.768;2022-08-14T03:50:28;10.80;;;3.20;;
38264;SDS011;24062;47.480;8.768;2022-08-14T03:52:56;12.80;;;3.40;;
38264;SDS011;24062;47.480;8.768;2022-08-14T03:55:24;11.30;;;3.37;;
38264;SDS011;24062;47.480;8.768;2022-08-14T03:57:53;10.87;;;2.90;;
38264;SDS011;24062;47.480;8.768;2022-08-14T04:00:21;12.67;;;3.00;;
38264;SDS011;24062;47.480;8.768;2022-08-14T04:02:48;12.40;;;3.37;;
38264;SDS011;24062;47.480;8.768;2022-08-14T04:05:15;11.00;;;3.07;;
38264;SDS011;24062;47.480;8.768;2022-08-14T04:07:42;14.13;;;3.53;;
38264;SDS011;24062;47.480;8.768;2022-08-14T04:10:09;10.50;;;2.80;;
38264;SDS011;24062;47.480;8.768;2022-08-14T04:12:36;15.33;;;3.87;;
38264;SDS011;24062;47.480;8.768;2022-08-14T04:15:05;12.20;;;3.30;;
38264;SDS011;24062;47.480;8.768;2022-08-14T04:17:32;11.47;;;3.50;;
38264;SDS011;24062;47.480;8.768;2022-08-14T04:19:59;11.10;;;3.50;;
38264;SDS011;24062;47.480;8.768;2022-08-14T04:22:28;10.80;;;2.90;;
38264;SDS011;24062;47.480;8.768;2022-08-14T04:24:55;11.07;;;3.20;;
38264;SDS011;24062;47.480;8.768;2022-08-14T04:27:23;12.60;;;3.50;;
38264;SDS011;24062;47.480;8.768;2022-08-14T04:29:51;11.00;;;3.10;;
38264;SDS011;24062;47.480;8.768;2022-08-14T04:32:20;11.13;;;2.70;;
38264;SDS011;24062;47.480;8.768;2022-08-14T04:34:50;11.50;;;3.50;;
38264;SDS011;24062;47.480;8.768;2022-08-14T04:37:18;10.97;;;2.93;;
38264;SDS011;24062;47.480;8.768;2022-08-14T04:40:04;11.63;;;3.30;;
38264;SDS011;24062;47.480;8.768;2022-08-14T04:42:49;11.80;;;3.53;;
38264;SDS011;24062;47.480;8.768;2022-08-14T04:45:33;15.23;;;3.50;;
38264;SDS011;24062;47.480;8.768;2022-08-14T04:48:06;13.20;;;3.37;;
38264;SDS011;24062;47.480;8.768;2022-08-14T04:50:37;12.37;;;2.97;;
38264;SDS011;24062;47.480;8.768;2022-08-14T04:53:04;13.67;;;4.07;;
38264;SDS011;24062;47.480;8.768;2022-08-14T04:55:31;11.80;;;3.27;;
38264;SDS011;24062;47.480;8.768;2022-08-14T04:57:59;11.03;;;3.00;;
38264;SDS011;24062;47.480;8.768;2022-08-14T05:00:28;12.43;;;2.97;;
38264;SDS011;24062;47.480;8.768;2022-08-14T05:02:55;10.67;;;3.10;;
38264;SDS011;24062;47.480;8.768;2022-08-14T05:05:24;10.40;;;2.90;;
38264;SDS011;24062;47.480;8.768;2022-08-14T05:07:52;12.10;;;3.00;;
38264;SDS011;24062;47.480;8.768;2022-08-14T05:10:19;10.73;;;2.90;;
38264;SDS011;24062;47.480;8.768;2022-08-14T05:12:50;11.47;;;3.33;;
38264;SDS011;24062;47.480;8.768;2022-08-14T05:15:18;10.97;;;3.30;;
38264;SDS011;24062;47.480;8.768;2022-08-14T05:17:46;11.50;;;3.70;;
38264;SDS011;24062;47.480;8.768;2022-08-14T05:20:14;12.67;;;3.60;;
38264;SDS011;24062;47.480;8.768;2022-08-14T05:22:42;10.53;;;2.70;;
38264;SDS011;24062;47.480;8.768;2022-08-14T05:25:09;12.60;;;3.57;;
38264;SDS011;24062;47.480;8.768;2022-08-14T05:27:36;10.83;;;2.83;;
38264;SDS011;24062;47.480;8.768;2022-08-14T05:30:04;11.87;;;2.37;;
38264;SDS011;24062;47.480;8.768;2022-08-14T05:32:31;11.70;;;3.00;;
38264;SDS011;24062;47.480;8.768;2022-08-14T05:34:58;11.47;;;3.13;;
38264;SDS011;24062;47.480;8.768;2022-08-14T05:37:26;18.23;;;3.17;;
38264;SDS011;24062;47.480;8.768;2022-08-14T05:39:55;18.70;;;2.63;;
38264;SDS011;24062;47.480;8.768;2022-08-14T05:42:23;10.30;;;3.00;;
38264;SDS011;24062;47.480;8.768;2022-08-14T05:44:51;10.70;;;2.70;;
38264;SDS011;24062;47.480;8.768;2022-08-14T05:47:18;12.57;;;2.77;;
38264;SDS011;24062;47.480;8.768;2022-08-14T05:49:44;12.67;;;3.00;;
38264;SDS011;24062;47.480;8.768;2022-08-14T05:52:12;11.93;;;2.93;;
38264;SDS011;24062;47.480;8.768;2022-08-14T05:54:39;11.23;;;2.40;;
38264;SDS011;24062;47.480;8.768;2022-08-14T05:57:07;11.20;;;2.80;;
38264;SDS011;24062;47.480;8.768;2022-08-14T05:59:34;10.60;;;2.63;;
38264;SDS011;24062;47.480;8.768;2022-08-14T06:02:01;10.43;;;2.07;;
38264;SDS011;24062;47.480;8.768;2022-08-14T06:04:28;11.07;;;2.60;;
38264;SDS011;24062;47.480;8.768;2022-08-14T06:06:55;11.00;;;2.90;;
38264;SDS011;24062;47.480;8.768;2022-08-14T06:09:22;11.37;;;2.43;;
38264;SDS011;24062;47.480;8.768;2022-08-14T06:11:49;10.70;;;2.50;;
38264;SDS011;24062;47.480;8.768;2022-08-14T06:14:17;11.40;;;2.40;;
38264;SDS011;24062;47.480;8.768;2022-08-14T06:16:44;12.33;;;3.07;;
38264;SDS011;24062;47.480;8.768;2022-08-14T06:19:11;10.77;;;2.67;;
38264;SDS011;24062;47.480;8.768;2022-08-14T06:21:39;13.03;;;3.33;;
38264;SDS011;24062;47.480;8.768;2022-08-14T06:24:06;14.77;;;2.77;;
38264;SDS011;24062;47.480;8.768;2022-08-14T06:26:33;10.63;;;2.57;;
38264;SDS011;24062;47.480;8.768;2022-08-14T06:29:00;10.23;;;2.10;;
38264;SDS011;24062;47.480;8.768;2022-08-14T06:31:29;12.20;;;2.57;;
38264;SDS011;24062;47.480;8.768;2022-08-14T06:33:55;10.83;;;2.60;;
38264;SDS011;24062;47.480;8.768;2022-08-14T06:36:23;11.07;;;2.83;;
38264;SDS011;24062;47.480;8.768;2022-08-14T06:38:50;11.30;;;2.27;;
38264;SDS011;24062;47.480;8.768;2022-08-14T06:41:18;11.53;;;2.70;;
38264;SDS011;24062;47.480;8.768;2022-08-14T06:43:45;12.63;;;2.40;;
38264;SDS011;24062;47.480;8.768;2022-08-14T06:46:11;10.37;;;2.20;;
38264;SDS011;24062;47.480;8.768;2022-08-14T06:48:40;13.80;;;3.13;;
38264;SDS011;24062;47.480;8.768;2022-08-14T06:51:07;11.10;;;2.30;;
38264;SDS011;24062;47.480;8.768;2022-08-14T06:53:34;12.33;;;2.60;;
38264;SDS011;24062;47.480;8.768;2022-08-14T06:56:01;11.40;;;2.90;;
38264;SDS011;24062;47.480;8.768;2022-08-14T06:58:28;10.80;;;2.20;;
38264;SDS011;24062;47.480;8.768;2022-08-14T07:00:55;13.53;;;2.90;;
38264;SDS011;24062;47.480;8.768;2022-08-14T07:03:41;11.17;;;2.57;;
38264;SDS011;24062;47.480;8.768;2022-08-14T07:06:25;12.27;;;2.63;;
38264;SDS011;24062;47.480;8.768;2022-08-14T07:08:54;11.97;;;2.80;;
38264;SDS011;24062;47.480;8.768;2022-08-14T07:11:21;11.47;;;3.10;;
38264;SDS011;24062;47.480;8.768;2022-08-14T07:13:48;11.90;;;2.70;;
38264;SDS011;24062;47.480;8.768;2022-08-14T07:16:15;12.00;;;2.80;;
38264;SDS011;24062;47.480;8.768;2022-08-14T07:18:43;12.00;;;3.47;;
38264;SDS011;24062;47.480;8.768;2022-08-14T07:21:10;12.23;;;3.17;;
38264;SDS011;24062;47.480;8.768;2022-08-14T07:23:37;12.70;;;3.40;;
38264;SDS011;24062;47.480;8.768;2022-08-14T07:26:04;12.67;;;3.47;;
38264;SDS011;24062;47.480;8.768;2022-08-14T07:28:32;14.60;;;3.07;;
38264;SDS011;24062;47.480;8.768;2022-08-14T07:31:10;14.13;;;3.10;;
38264;SDS011;24062;47.480;8.768;2022-08-14T07:33:38;13.90;;;3.50;;
38264;SDS011;24062;47.480;8.768;2022-08-14T07:36:08;12.97;;;3.30;;
38264;SDS011;24062;47.480;8.768;2022-08-14T07:38:36;11.50;;;2.80;;
38264;SDS011;24062;47.480;8.768;2022-08-14T07:41:05;13.03;;;3.07;;
38264;SDS011;24062;47.480;8.768;2022-08-14T07:43:34;12.90;;;3.40;;
38264;SDS011;24062;47.480;8.768;2022-08-14T07:46:01;15.67;;;3.50;;
38264;SDS011;24062;47.480;8.768;2022-08-14T07:48:28;11.53;;;3.33;;
38264;SDS011;24062;47.480;8.768;2022-08-14T07:50:55;11.10;;;2.77;;
38264;SDS011;24062;47.480;8.768;2022-08-14T07:53:24;11.97;;;3.57;;
38264;SDS011;24062;47.480;8.768;2022-08-14T07:55:50;13.87;;;3.10;;
38264;SDS011;24062;47.480;8.768;2022-08-14T07:58:18;14.83;;;3.37;;
38264;SDS011;24062;47.480;8.768;2022-08-14T08:00:45;18.83;;;3.77;;
38264;SDS011;24062;47.480;8.768;2022-08-14T08:03:12;12.87;;;3.10;;
38264;SDS011;24062;47.480;8.768;2022-08-14T08:05:40;11.70;;;3.27;;
38264;SDS011;24062;47.480;8.768;2022-08-14T08:08:07;11.77;;;3.07;;
38264;SDS011;24062;47.480;8.768;2022-08-14T08:10:35;12.37;;;3.57;;
38264;SDS011;24062;47.480;8.768;2022-08-14T08:13:06;17.80;;;5.27;;
38264;SDS011;24062;47.480;8.768;2022-08-14T08:15:35;11.53;;;2.90;;
38264;SDS011;24062;47.480;8.768;2022-08-14T08:18:05;12.77;;;2.90;;
38264;SDS011;24062;47.480;8.768;2022-08-14T08:20:35;11.93;;;2.90;;
38264;SDS011;24062;47.480;8.768;2022-08-14T08:23:04;11.50;;;3.20;;
38264;SDS011;24062;47.480;8.768;2022-08-14T08:25:33;14.50;;;3.67;;
38264;SDS011;24062;47.480;8.768;2022-08-14T08:28:05;12.83;;;3.80;;
38264;SDS011;24062;47.480;8.768;2022-08-14T08:30:35;13.07;;;2.60;;
38264;SDS011;24062;47.480;8.768;2022-08-14T08:33:03;13.27;;;3.30;;
38264;SDS011;24062;47.480;8.768;2022-08-14T08:35:31;12.90;;;2.70;;
38264;SDS011;24062;47.480;8.768;2022-08-14T08:38:00;14.70;;;4.00;;
38264;SDS011;24062;47.480;8.768;2022-08-14T08:40:29;13.20;;;3.07;;
38264;SDS011;24062;47.480;8.768;2022-08-14T08:43:00;13.60;;;3.03;;
38264;SDS011;24062;47.480;8.768;2022-08-14T08:45:28;12.50;;;3.20;;
38264;SDS011;24062;47.480;8.768;2022-08-14T08:47:56;15.47;;;3.07;;
38264;SDS011;24062;47.480;8.768;2022-08-14T08:50:24;15.43;;;3.37;;
38264;SDS011;24062;47.480;8.768;2022-08-14T08:52:54;12.00;;;2.90;;
38264;SDS011;24062;47.480;8.768;2022-08-14T08:55:27;11.60;;;2.80;;
38264;SDS011;24062;47.480;8.768;2022-08-14T08:57:56;11.63;;;2.60;;
38264;SDS011;24062;47.480;8.768;2022-08-14T09:00:24;11.70;;;2.87;;
38264;SDS011;24062;47.480;8.768;2022-08-14T09:02:59;12.80;;;2.90;;
38264;SDS011;24062;47.480;8.768;2022-08-14T09:05:31;11.70;;;2.17;;
38264;SDS011;24062;47.480;8.768;2022-08-14T09:08:13;11.73;;;2.20;;
38264;SDS011;24062;47.480;8.768;2022-08-14T09:10:41;11.30;;;2.73;;
38264;SDS011;24062;47.480;8.768;2022-08-14T09:13:08;11.13;;;2.50;;
38264;SDS011;24062;47.480;8.768;2022-08-14T09:15:38;10.43;;;2.03;;
38264;SDS011;24062;47.480;8.768;2022-08-14T09:18:08;15.83;;;3.30;;
38264;SDS011;24062;47.480;8.768;2022-08-14T09:20:36;14.07;;;2.90;;
38264;SDS011;24062;47.480;8.768;2022-08-14T09:23:04;12.27;;;2.40;;
38264;SDS011;24062;47.480;8.768;2022-08-14T09:25:32;11.40;;;2.43;;
38264;SDS011;24062;47.480;8.768;2022-08-14T09:28:00;11.50;;;2.70;;
38264;SDS011;24062;47.480;8.768;2022-08-14T09:30:27;16.60;;;2.40;;
38264;SDS011;24062;47.480;8.768;2022-08-14T09:35:59;13.60;;;3.10;;
38264;SDS011;24062;47.480;8.768;2022-08-14T09:38:45;11.17;;;2.57;;
38264;SDS011;24062;47.480;8.768;2022-08-14T09:41:22;12.80;;;2.27;;
38264;SDS011;24062;47.480;8.768;2022-08-14T09:44:02;12.70;;;3.07;;
38264;SDS011;24062;47.480;8.768;2022-08-14T09:46:32;13.23;;;2.70;;
38264;SDS011;24062;47.480;8.768;2022-08-14T09:49:02;13.53;;;2.20;;
38264;SDS011;24062;47.480;8.768;2022-08-14T09:51:30;12.43;;;2.47;;
38264;SDS011;24062;47.480;8.768;2022-08-14T09:53:59;12.07;;;2.20;;
38264;SDS011;24062;47.480;8.768;2022-08-14T09:56:30;12.23;;;2.40;;
38264;SDS011;24062;47.480;8.768;2022-08-14T09:59:10;11.37;;;2.50;;
38264;SDS011;24062;47.480;8.768;2022-08-14T10:01:39;11.20;;;2.47;;
38264;SDS011;24062;47.480;8.768;2022-08-14T10:04:18;10.27;;;2.17;;
38264;SDS011;24062;47.480;8.768;2022-08-14T10:06:47;10.87;;;2.37;;
38264;SDS011;24062;47.480;8.768;2022-08-14T10:09:15;12.37;;;2.53;;
38264;SDS011;24062;47.480;8.768;2022-08-14T10:11:52;11.47;;;2.27;;
38264;SDS011;24062;47.480;8.768;2022-08-14T10:14:21;12.13;;;2.00;;
38264;SDS011;24062;47.480;8.768;2022-08-14T10:16:50;11.77;;;2.33;;
38264;SDS011;24062;47.480;8.768;2022-08-14T10:19:20;15.43;;;2.10;;
38264;SDS011;24062;47.480;8.768;2022-08-14T10:21:55;10.50;;;2.00;;
38264;SDS011;24062;47.480;8.768;2022-08-14T10:24:25;11.43;;;2.17;;
38264;SDS011;24062;47.480;8.768;2022-08-14T10:26:54;10.57;;;1.83;;
38264;SDS011;24062;47.480;8.768;2022-08-14T10:29:29;11.47;;;2.20;;
38264;SDS011;24062;47.480;8.768;2022-08-14T10:31:57;10.70;;;1.93;;
38264;SDS011;24062;47.480;8.768;2022-08-14T10:34:30;12.17;;;2.40;;
38264;SDS011;24062;47.480;8.768;2022-08-14T10:37:01;11.30;;;2.73;;
38264;SDS011;24062;47.480;8.768;2022-08-14T10:39:31;11.97;;;2.43;;
38264;SDS011;24062;47.480;8.768;2022-08-14T10:42:01;10.70;;;2.23;;
38264;SDS011;24062;47.480;8.768;2022-08-14T10:44:31;10.73;;;1.73;;
38264;SDS011;24062;47.480;8.768;2022-08-14T10:47:00;10.80;;;2.20;;
38264;SDS011;24062;47.480;8.768;2022-08-14T10:49:31;14.02;;;2.00;;
38264;SDS011;24062;47.480;8.768;2022-08-14T10:52:00;10.48;;;1.95;;
38264;SDS011;24062;47.480;8.768;2022-08-14T10:54:33;11.05;;;2.10;;
38264;SDS011;24062;47.480;8.768;2022-08-14T10:57:15;11.68;;;1.88;;
38264;SDS011;24062;47.480;8.768;2022-08-14T10:59:45;13.30;;;2.83;;
38264;SDS011;24062;47.480;8.768;2022-08-14T11:02:17;11.18;;;2.10;;
38264;SDS011;24062;47.480;8.768;2022-08-14T11:05:02;11.50;;;1.70;;
38264;SDS011;24062;47.480;8.768;2022-08-14T11:07:32;12.02;;;2.00;;
38264;SDS011;24062;47.480;8.768;2022-08-14T11:10:01;10.77;;;1.98;;
38264;SDS011;24062;47.480;8.768;2022-08-14T11:12:38;10.40;;;1.80;;
38264;SDS011;24062;47.480;8.768;2022-08-14T11:15:10;12.25;;;2.33;;
38264;SDS011;24062;47.480;8.768;2022-08-14T11:17:37;13.27;;;2.20;;
38264;SDS011;24062;47.480;8.768;2022-08-14T11:20:08;11.30;;;2.08;;
38264;SDS011;24062;47.480;8.768;2022-08-14T11:22:36;13.48;;;2.55;;
38264;SDS011;24062;47.480;8.768;2022-08-14T11:25:07;11.90;;;1.83;;
38264;SDS011;24062;47.480;8.768;2022-08-14T11:27:35;11.15;;;1.92;;
38264;SDS011;24062;47.480;8.768;2022-08-14T11:30:05;11.20;;;1.73;;
38264;SDS011;24062;47.480;8.768;2022-08-14T11:32:34;10.88;;;2.25;;
38264;SDS011;24062;47.480;8.768;2022-08-14T11:35:03;11.55;;;1.83;;
38264;SDS011;24062;47.480;8.768;2022-08-14T11:37:32;13.38;;;2.38;;
38264;SDS011;24062;47.480;8.768;2022-08-14T11:39:59;15.43;;;1.80;;
38264;SDS011;24062;47.480;8.768;2022-08-14T11:42:27;11.00;;;2.10;;
38264;SDS011;24062;47.480;8.768;2022-08-14T11:44:56;10.75;;;1.83;;
38264;SDS011;24062;47.480;8.768;2022-08-14T11:47:24;10.98;;;2.17;;
38264;SDS011;24062;47.480;8.768;2022-08-14T11:49:51;10.73;;;2.22;;
38264;SDS011;24062;47.480;8.768;2022-08-14T11:52:18;12.57;;;2.20;;
38264;SDS011;24062;47.480;8.768;2022-08-14T11:54:55;14.70;;;2.40;;
38264;SDS011;24062;47.480;8.768;2022-08-14T11:57:22;14.18;;;2.53;;
38264;SDS011;24062;47.480;8.768;2022-08-14T11:59:59;11.57;;;2.17;;
38264;SDS011;24062;47.480;8.768;2022-08-14T12:02:26;13.82;;;3.17;;
38264;SDS011;24062;47.480;8.768;2022-08-14T12:04:53;11.20;;;2.90;;
38264;SDS011;24062;47.480;8.768;2022-08-14T12:07:20;15.02;;;2.97;;
38264;SDS011;24062;47.480;8.768;2022-08-14T12:09:51;15.60;;;3.00;;
38264;SDS011;24062;47.480;8.768;2022-08-14T12:12:20;12.93;;;3.00;;
38264;SDS011;24062;47.480;8.768;2022-08-14T12:14:49;17.02;;;3.00;;
38264;SDS011;24062;47.480;8.768;2022-08-14T12:17:20;12.05;;;2.40;;
38264;SDS011;24062;47.480;8.768;2022-08-14T12:19:49;11.85;;;2.40;;
38264;SDS011;24062;47.480;8.768;2022-08-14T12:22:17;11.98;;;2.97;;
38264;SDS011;24062;47.480;8.768;2022-08-14T12:24:45;11.77;;;2.75;;
38264;SDS011;24062;47.480;8.768;2022-08-14T12:27:16;10.77;;;2.42;;
38264;SDS011;24062;47.480;8.768;2022-08-14T12:29:50;12.10;;;3.17;;
38264;SDS011;24062;47.480;8.768;2022-08-14T12:32:17;16.33;;;2.90;;
38264;SDS011;24062;47.480;8.768;2022-08-14T12:34:50;12.90;;;2.53;;
38264;SDS011;24062;47.480;8.768;2022-08-14T12:37:27;13.50;;;3.20;;
38264;SDS011;24062;47.480;8.768;2022-08-14T12:40:12;12.82;;;3.05;;
38264;SDS011;24062;47.480;8.768;2022-08-14T12:42:41;11.40;;;2.60;;
38264;SDS011;24062;47.480;8.768;2022-08-14T12:45:09;11.77;;;2.78;;
38264;SDS011;24062;47.480;8.768;2022-08-14T12:47:38;13.32;;;2.90;;
38264;SDS011;24062;47.480;8.768;2022-08-14T12:50:06;11.77;;;2.53;;
38264;SDS011;24062;47.480;8.768;2022-08-14T12:52:35;11.75;;;2.70;;
38264;SDS011;24062;47.480;8.768;2022-08-14T12:55:05;12.10;;;2.88;;
38264;SDS011;24062;47.480;8.768;2022-08-14T12:57:36;14.68;;;2.30;;
38264;SDS011;24062;47.480;8.768;2022-08-14T13:00:07;13.88;;;2.47;;
38264;SDS011;24062;47.480;8.768;2022-08-14T13:02:37;13.18;;;2.35;;
38264;SDS011;24062;47.480;8.768;2022-08-14T13:05:06;11.50;;;2.03;;
38264;SDS011;24062;47.480;8.768;2022-08-14T13:07:34;10.73;;;2.28;;
38264;SDS011;24062;47.480;8.768;2022-08-14T13:10:04;11.07;;;2.10;;
38264;SDS011;24062;47.480;8.768;2022-08-14T13:12:34;12.13;;;2.10;;
38264;SDS011;24062;47.480;8.768;2022-08-14T13:15:04;11.60;;;2.30;;
38264;SDS011;24062;47.480;8.768;2022-08-14T13:17:32;12.73;;;1.88;;
38264;SDS011;24062;47.480;8.768;2022-08-14T13:20:06;10.50;;;1.88;;
38264;SDS011;24062;47.480;8.768;2022-08-14T13:22:35;13.10;;;1.90;;
38264;SDS011;24062;47.480;8.768;2022-08-14T13:25:06;11.50;;;1.80;;
38264;SDS011;24062;47.480;8.768;2022-08-14T13:27:35;13.82;;;2.10;;
38264;SDS011;24062;47.480;8.768;2022-08-14T13:30:04;14.32;;;2.10;;
38264;SDS011;24062;47.480;8.768;2022-08-14T13:32:33;10.63;;;2.00;;
38264;SDS011;24062;47.480;8.768;2022-08-14T13:35:04;12.55;;;2.80;;
38264;SDS011;24062;47.480;8.768;2022-08-14T13:37:32;10.90;;;2.13;;
38264;SDS011;24062;47.480;8.768;2022-08-14T13:40:02;13.43;;;1.80;;
38264;SDS011;24062;47.480;8.768;2022-08-14T13:42:29;10.40;;;1.92;;
38264;SDS011;24062;47.480;8.768;2022-08-14T13:44:59;11.30;;;2.17;;
38264;SDS011;24062;47.480;8.768;2022-08-14T13:47:27;10.13;;;1.88;;
38264;SDS011;24062;47.480;8.768;2022-08-14T13:49:57;10.80;;;2.03;;
38264;SDS011;24062;47.480;8.768;2022-08-14T13:52:29;13.90;;;1.83;;
38264;SDS011;24062;47.480;8.768;2022-08-14T13:55:00;11.63;;;2.03;;
38264;SDS011;24062;47.480;8.768;2022-08-14T13:57:30;11.75;;;1.95;;
38264;SDS011;24062;47.480;8.768;2022-08-14T14:00:03;12.25;;;1.92;;
38264;SDS011;24062;47.480;8.768;2022-08-14T14:02:36;11.43;;;1.90;;
38264;SDS011;24062;47.480;8.768;2022-08-14T14:05:04;9.93;;;1.92;;
38264;SDS011;24062;47.480;8.768;2022-08-14T14:07:32;11.80;;;1.92;;
38264;SDS011;24062;47.480;8.768;2022-08-14T14:10:03;12.77;;;2.20;;
38264;SDS011;24062;47.480;8.768;2022-08-14T14:12:33;12.95;;;1.80;;
38264;SDS011;24062;47.480;8.768;2022-08-14T14:15:04;11.00;;;1.85;;
38264;SDS011;24062;47.480;8.768;2022-08-14T14:17:33;11.05;;;2.15;;
38264;SDS011;24062;47.480;8.768;2022-08-14T14:20:01;10.88;;;2.03;;
38264;SDS011;24062;47.480;8.768;2022-08-14T14:22:29;12.50;;;2.17;;
38264;SDS011;24062;47.480;8.768;2022-08-14T14:24:56;10.95;;;2.08;;
38264;SDS011;24062;47.480;8.768;2022-08-14T14:27:24;12.57;;;2.03;;
38264;SDS011;24062;47.480;8.768;2022-08-14T14:29:53;14.32;;;1.95;;
38264;SDS011;24062;47.480;8.768;2022-08-14T14:32:25;11.05;;;1.85;;
38264;SDS011;24062;47.480;8.768;2022-08-14T14:34:54;12.68;;;2.25;;
38264;SDS011;24062;47.480;8.768;2022-08-14T14:37:25;13.75;;;2.47;;
38264;SDS011;24062;47.480;8.768;2022-08-14T14:39:52;11.60;;;2.17;;
38264;SDS011;24062;47.480;8.768;2022-08-14T14:42:23;11.75;;;2.03;;
38264;SDS011;24062;47.480;8.768;2022-08-14T14:44:52;13.05;;;2.10;;
38264;SDS011;24062;47.480;8.768;2022-08-14T14:47:28;15.15;;;2.45;;